< Cyclone 197219 1972 Season Cyclone 197302 >
Cyclone 197220 (IDA)
General InformationTrack Information on Google Maps || ResourceGoogle EarthGE AnimationAtom FeedGeoJSON
Detalied Best Track (Time Zone = UTC)
Year Month Day Hour Lat. Long. Pressure (hPa) Wind (kt) Class Image Chart
1972 5 29 23 -4.9 156.4 1000 0 0 -- --
1972 5 30 02 -5.4 156.5 1000 0 0 -- --
1972 5 30 05 -5.9 156.6 998 0 0 -- --
1972 5 30 08 -6.0 156.8 998 0 0 -- --
1972 5 30 11 -6.2 156.9 998 0 0 -- --
1972 5 30 14 -6.6 157.0 998 0 0 -- --
1972 5 30 17 -6.7 157.1 998 0 0 -- --
1972 5 30 20 -6.8 157.2 995 0 0 -- --
1972 5 30 23 -6.9 157.5 980 0 0 -- --
1972 5 31 02 -7.1 157.9 978 0 0 -- --
1972 5 31 05 -7.2 158.2 978 0 0 -- --
1972 5 31 08 -7.5 158.5 978 0 0 -- --
1972 5 31 11 -7.7 158.9 975 0 0 -- --
1972 5 31 14 -7.8 159.2 975 0 0 -- --
1972 5 31 17 -8.0 159.5 970 0 0 -- --
1972 5 31 20 -8.2 159.8 970 0 0 -- --
1972 5 31 23 -8.4 160.0 970 0 0 -- --
1972 6 1 02 -8.8 160.2 970 0 0 -- --
1972 6 1 05 -9.4 160.6 970 0 0 -- --
1972 6 1 08 -9.9 160.8 970 0 0 -- --
1972 6 1 11 -10.7 160.9 970 0 0 -- --
1972 6 1 14 -11.3 161.1 975 0 0 -- --
1972 6 1 17 -12.2 161.2 975 0 0 -- --
1972 6 1 20 -13.0 161.3 975 0 0 -- --
1972 6 1 23 -13.9 161.5 983 0 0 -- --
1972 6 2 02 -14.7 161.8 985 0 0 -- --
1972 6 2 05 -15.6 162.1 985 0 0 -- --
1972 6 2 08 -16.5 162.7 985 0 0 -- --
1972 6 2 11 -17.3 163.2 985 0 0 -- --
1972 6 2 14 -18.0 163.8 987 0 0 -- --
1972 6 2 17 -18.9 164.5 987 0 0 -- --
1972 6 2 20 -19.7 165.2 990 0 0 -- --
1972 6 2 23 -20.5 166.0 990 0 0 -- --
1972 6 3 02 -21.2 167.2 990 0 0 -- --
1972 6 3 05 -21.9 168.0 995 0 0 -- --
< Cyclone 197219 1972 Season Cyclone 197302 >

Help